createdAt,value
2022-12-17T00:00:49.349Z,39.63
2022-12-17T00:03:35.141Z,41.13
2022-12-17T00:06:20.382Z,39.63
2022-12-17T00:09:05.358Z,40.30
2022-12-17T00:11:50.364Z,40.20
2022-12-17T00:14:35.650Z,41.80
2022-12-17T00:17:20.553Z,37.27
2022-12-17T00:20:07.913Z,40.90
2022-12-17T00:22:52.831Z,36.93
2022-12-17T00:25:38.302Z,35.83
2022-12-17T00:28:28.755Z,37.97
2022-12-17T00:31:13.945Z,36.33
2022-12-17T00:33:58.993Z,36.27
2022-12-17T00:36:44.826Z,37.63
2022-12-17T00:39:30.358Z,39.03
2022-12-17T00:42:15.537Z,38.50
2022-12-17T00:45:00.986Z,36.37
2022-12-17T00:47:45.925Z,37.50
2022-12-17T00:50:30.851Z,38.87
2022-12-17T00:53:15.814Z,38.73
2022-12-17T00:56:00.970Z,37.10
2022-12-17T00:58:45.851Z,37.37
2022-12-17T01:04:16.069Z,34.27
2022-12-17T01:07:00.950Z,34.73
2022-12-17T01:09:45.782Z,34.67
2022-12-17T01:12:30.704Z,37.77
2022-12-17T01:15:15.595Z,36.97
2022-12-17T01:18:00.714Z,33.73
2022-12-17T01:20:45.584Z,35.53
2022-12-17T01:23:30.479Z,35.47
2022-12-17T01:26:16.230Z,36.77
2022-12-17T01:29:01.788Z,37.40
2022-12-17T01:31:46.755Z,34.20
2022-12-17T01:34:32.029Z,35.70
2022-12-17T01:37:17.056Z,36.40
2022-12-17T01:40:02.013Z,34.07
2022-12-17T01:42:58.937Z,35.50
2022-12-17T01:45:47.378Z,34.80
2022-12-17T01:48:35.645Z,37.63
2022-12-17T01:51:21.607Z,34.57
2022-12-17T01:54:09.850Z,35.97
2022-12-17T01:56:56.148Z,33.70
2022-12-17T01:59:52.043Z,32.23
2022-12-17T02:02:36.986Z,31.13
2022-12-17T02:05:22.263Z,31.90
2022-12-17T02:08:49.274Z,32.77
2022-12-17T02:11:48.744Z,31.33
2022-12-17T02:14:58.584Z,28.33
2022-12-17T02:17:48.973Z,30.57
2022-12-17T02:20:51.007Z,29.77
2022-12-17T02:23:39.426Z,30.67
2022-12-17T02:26:53.772Z,28.10
2022-12-17T02:29:41.362Z,27.90
2022-12-17T02:32:29.453Z,29.40
2022-12-17T02:35:15.296Z,28.93
2022-12-17T02:38:07.399Z,28.47
2022-12-17T02:40:56.975Z,29.03
2022-12-17T02:43:44.373Z,30.40
2022-12-17T02:46:32.493Z,29.90
2022-12-17T02:49:17.990Z,29.33
2022-12-17T02:52:03.993Z,27.67
2022-12-17T02:54:52.048Z,29.17
2022-12-17T02:57:41.084Z,27.23
2022-12-17T03:00:29.630Z,27.63
2022-12-17T03:03:14.680Z,27.73
2022-12-17T03:05:59.951Z,27.30
2022-12-17T03:08:44.870Z,29.87
2022-12-17T03:11:29.713Z,28.13
2022-12-17T03:14:14.603Z,27.03
2022-12-17T03:17:00.178Z,26.93
2022-12-17T03:19:45.444Z,28.17
2022-12-17T03:22:33.160Z,27.50
2022-12-17T03:25:18.140Z,28.73
2022-12-17T03:28:03.084Z,29.50
2022-12-17T03:30:49.272Z,28.13
2022-12-17T03:33:35.377Z,30.37
2022-12-17T03:36:21.136Z,27.97
2022-12-17T03:39:06.075Z,28.87
2022-12-17T03:41:51.056Z,29.67
2022-12-17T03:44:36.062Z,29.33
2022-12-17T03:47:20.964Z,27.73
2022-12-17T03:50:05.880Z,29.90
2022-12-17T03:52:50.737Z,28.13
2022-12-17T03:55:36.314Z,29.13
2022-12-17T03:58:21.216Z,27.97
2022-12-17T04:01:06.820Z,26.90
2022-12-17T04:03:51.792Z,29.80
2022-12-17T04:06:36.732Z,27.90
2022-12-17T04:09:22.215Z,28.77
2022-12-17T04:12:07.130Z,26.97
2022-12-17T04:14:52.169Z,26.93
2022-12-17T04:17:37.554Z,27.83
2022-12-17T04:20:23.371Z,29.60
2022-12-17T04:23:08.404Z,28.63
2022-12-17T04:25:53.386Z,27.67
2022-12-17T04:28:38.589Z,28.23
2022-12-17T04:31:25.312Z,25.93
2022-12-17T04:34:10.509Z,25.20
2022-12-17T04:36:55.582Z,26.40
2022-12-17T04:39:42.957Z,23.83
2022-12-17T04:42:27.953Z,24.27
2022-12-17T04:45:12.745Z,24.23
2022-12-17T04:47:57.686Z,25.93
2022-12-17T04:50:43.089Z,24.17
2022-12-17T04:53:28.882Z,23.93
2022-12-17T04:56:14.934Z,23.23
2022-12-17T04:58:59.765Z,24.77
2022-12-17T05:02:05.086Z,23.70
2022-12-17T05:04:50.460Z,22.57
2022-12-17T05:07:35.349Z,23.27
2022-12-17T05:10:20.743Z,24.00
2022-12-17T05:13:05.564Z,23.50
2022-12-17T05:15:53.293Z,21.67
2022-12-17T05:18:39.160Z,22.93
2022-12-17T05:21:24.449Z,22.67
2022-12-17T05:24:09.911Z,23.03
2022-12-17T05:26:54.710Z,25.63
2022-12-17T05:29:42.496Z,26.27
2022-12-17T05:32:27.344Z,24.00
2022-12-17T05:35:12.797Z,23.17
2022-12-17T05:37:57.709Z,23.00
2022-12-17T05:40:42.674Z,23.83
2022-12-17T05:43:31.075Z,23.03
2022-12-17T05:46:18.187Z,23.03
2022-12-17T05:49:03.413Z,23.87
2022-12-17T05:51:48.312Z,23.83
2022-12-17T05:54:34.045Z,21.47
2022-12-17T05:57:19.299Z,21.20
2022-12-17T06:00:04.349Z,22.00
2022-12-17T06:02:49.845Z,19.83
2022-12-17T06:05:34.942Z,21.43
2022-12-17T06:08:27.591Z,21.67
2022-12-17T06:11:13.642Z,23.33
2022-12-17T06:13:58.458Z,21.97
2022-12-17T06:16:43.657Z,22.33
2022-12-17T06:19:28.876Z,23.20
2022-12-17T06:22:14.155Z,21.63
2022-12-17T06:24:59.073Z,23.57
2022-12-17T06:27:43.866Z,22.60
2022-12-17T06:30:29.835Z,22.57
2022-12-17T06:33:26.881Z,22.13
2022-12-17T06:36:19.703Z,23.00
2022-12-17T06:39:06.808Z,24.10
2022-12-17T06:44:19.294Z,23.70
2022-12-17T06:47:04.577Z,22.93
2022-12-17T06:49:50.039Z,23.13
2022-12-17T06:52:34.955Z,23.13
2022-12-17T06:55:20.269Z,22.83
2022-12-17T06:58:05.182Z,25.57
2022-12-17T07:00:50.019Z,24.60
2022-12-17T07:03:36.140Z,23.93
2022-12-17T07:06:21.589Z,23.17
2022-12-17T07:09:06.470Z,22.73
2022-12-17T07:11:51.289Z,22.47
2022-12-17T07:14:36.191Z,22.67
2022-12-17T07:17:21.059Z,21.90
2022-12-17T07:20:05.980Z,21.73
2022-12-17T07:22:50.858Z,21.80
2022-12-17T07:25:35.626Z,21.97
2022-12-17T07:28:20.470Z,21.87
2022-12-17T07:31:12.914Z,21.17
2022-12-17T07:33:57.749Z,21.23
2022-12-17T07:36:42.718Z,20.80
2022-12-17T07:39:27.715Z,22.13
2022-12-17T07:42:12.729Z,19.63
2022-12-17T07:45:05.225Z,21.47
2022-12-17T07:47:50.114Z,20.70
2022-12-17T07:50:34.804Z,20.77
2022-12-17T07:53:21.311Z,19.50
2022-12-17T07:56:08.105Z,20.00
2022-12-17T07:58:52.951Z,19.47
2022-12-17T08:01:37.893Z,19.17
2022-12-17T08:04:23.240Z,20.43
2022-12-17T08:07:13.846Z,20.43
2022-12-17T08:09:59.764Z,18.13
2022-12-17T08:12:44.700Z,19.30
2022-12-17T08:15:29.994Z,19.60
2022-12-17T08:18:26.492Z,19.23
2022-12-17T08:21:12.328Z,20.37
2022-12-17T08:23:57.189Z,18.87
2022-12-17T08:26:47.285Z,20.13
2022-12-17T08:29:32.968Z,20.43
2022-12-17T08:32:17.858Z,20.67
2022-12-17T08:35:02.714Z,19.03
2022-12-17T08:37:49.123Z,20.40
2022-12-17T08:40:34.439Z,20.97
2022-12-17T08:43:19.331Z,19.83
2022-12-17T08:46:06.453Z,18.97
2022-12-17T08:48:51.946Z,18.03
2022-12-17T08:51:37.334Z,18.77
2022-12-17T08:54:22.735Z,19.13
2022-12-17T08:57:07.687Z,19.00
2022-12-17T08:59:53.369Z,18.87
2022-12-17T09:02:39.185Z,17.03
2022-12-17T09:05:24.847Z,17.57
2022-12-17T09:08:25.720Z,18.00
2022-12-17T09:11:11.745Z,18.80
2022-12-17T09:13:56.678Z,17.70
2022-12-17T09:16:42.174Z,17.83
2022-12-17T09:19:29.449Z,17.50
2022-12-17T09:22:14.348Z,17.50
2022-12-17T09:25:02.456Z,19.53
2022-12-17T09:27:47.378Z,18.00
2022-12-17T09:30:32.249Z,17.57
2022-12-17T09:33:17.323Z,17.47
2022-12-17T09:36:02.132Z,18.83
2022-12-17T09:38:47.224Z,17.13
2022-12-17T09:41:44.393Z,17.90
2022-12-17T09:44:32.621Z,15.47
2022-12-17T09:47:44.485Z,13.63
2022-12-17T09:50:34.538Z,14.57
2022-12-17T09:53:22.645Z,16.13
2022-12-17T09:56:11.665Z,15.13
2022-12-17T09:58:59.108Z,15.80
2022-12-17T10:01:51.068Z,14.80
2022-12-17T10:04:42.742Z,14.90
2022-12-17T10:07:38.617Z,14.00
2022-12-17T10:10:39.310Z,15.17
2022-12-17T10:13:37.343Z,14.57
2022-12-17T10:16:39.330Z,12.90
2022-12-17T10:19:34.217Z,14.73
2022-12-17T10:22:30.335Z,15.70
2022-12-17T10:25:15.134Z,15.37
2022-12-17T10:28:00.115Z,15.00
2022-12-17T10:30:47.042Z,15.70
2022-12-17T10:33:38.447Z,14.30
2022-12-17T10:36:38.231Z,15.47
2022-12-17T10:39:24.557Z,16.60
2022-12-17T10:42:10.440Z,17.53
2022-12-17T10:44:56.861Z,14.67
2022-12-17T10:47:46.198Z,16.73
2022-12-17T10:50:38.709Z,16.67
2022-12-17T10:53:36.905Z,15.80
2022-12-17T10:56:23.074Z,15.30
2022-12-17T10:59:11.449Z,14.40
2022-12-17T11:02:00.892Z,16.10
2022-12-17T11:04:54.787Z,15.70
2022-12-17T11:07:45.946Z,16.37
2022-12-17T11:10:47.610Z,15.37
2022-12-17T11:13:51.846Z,14.97
2022-12-17T11:17:13.415Z,14.87
2022-12-17T11:20:24.892Z,13.50
2022-12-17T11:23:18.866Z,15.17
2022-12-17T11:26:08.859Z,14.87
2022-12-17T11:28:54.931Z,16.73
2022-12-17T11:32:08.380Z,16.20
2022-12-17T11:35:31.307Z,15.90
2022-12-17T11:38:43.129Z,17.67
2022-12-17T11:41:33.955Z,15.93
2022-12-17T11:44:31.406Z,17.27
2022-12-17T11:47:37.835Z,17.73
2022-12-17T11:50:34.409Z,15.93
2022-12-17T11:53:49.831Z,16.87
2022-12-17T11:56:40.677Z,18.40
2022-12-17T12:00:05.351Z,15.97
2022-12-17T12:03:09.101Z,15.80
2022-12-17T12:06:16.122Z,17.27
2022-12-17T12:09:34.407Z,18.07
2022-12-17T12:12:53.345Z,17.57
2022-12-17T12:15:50.156Z,17.93
2022-12-17T12:18:59.441Z,17.57
2022-12-17T12:21:58.510Z,18.00
2022-12-17T12:25:10.792Z,18.13
2022-12-17T12:28:14.375Z,17.10
2022-12-17T12:31:04.628Z,17.87
2022-12-17T12:34:12.177Z,18.80
2022-12-17T12:37:00.031Z,17.97
2022-12-17T12:39:55.855Z,18.80
2022-12-17T12:42:57.518Z,20.37
2022-12-17T12:46:16.929Z,19.10
2022-12-17T12:49:15.805Z,17.90
2022-12-17T12:52:01.599Z,20.03
2022-12-17T12:55:01.823Z,18.37
2022-12-17T12:57:48.366Z,18.87
2022-12-17T13:00:55.828Z,19.70
2022-12-17T13:03:46.326Z,17.80
2022-12-17T13:06:16.002Z,19.43
2022-12-17T13:08:42.500Z,19.57
2022-12-17T13:11:25.850Z,19.60
2022-12-17T13:13:57.370Z,19.53
2022-12-17T13:16:52.094Z,18.30
2022-12-17T13:19:31.284Z,18.47
2022-12-17T13:22:21.958Z,18.40
2022-12-17T13:24:53.458Z,19.20
2022-12-17T13:27:34.416Z,18.47
2022-12-17T13:30:21.642Z,19.63
2022-12-17T13:33:16.479Z,19.70
2022-12-17T13:36:20.227Z,18.33
2022-12-17T13:39:39.549Z,17.67
2022-12-17T13:42:17.952Z,17.33
2022-12-17T13:44:46.664Z,17.87
2022-12-17T13:47:30.637Z,19.73
2022-12-17T13:50:32.218Z,17.97
2022-12-17T13:52:45.899Z,18.43
2022-12-17T13:55:25.557Z,19.20
2022-12-17T13:57:53.620Z,19.13
2022-12-17T14:00:24.995Z,19.50
2022-12-17T14:02:52.966Z,19.37
2022-12-17T14:05:38.300Z,19.07
2022-12-17T14:08:05.964Z,20.17
2022-12-17T14:10:32.999Z,18.83
2022-12-17T14:13:08.590Z,18.20
2022-12-17T14:15:35.256Z,18.90
2022-12-17T14:18:02.820Z,19.77
2022-12-17T14:20:31.873Z,19.53
2022-12-17T14:23:02.621Z,19.07
2022-12-17T14:25:38.526Z,18.83
2022-12-17T14:28:29.575Z,17.60
2022-12-17T14:34:11.166Z,18.17
2022-12-17T14:36:41.788Z,17.60
2022-12-17T14:39:22.806Z,19.20
2022-12-17T14:42:08.091Z,17.63
2022-12-17T14:44:34.836Z,18.43
2022-12-17T14:47:26.258Z,18.13
2022-12-17T14:49:56.093Z,17.80
2022-12-17T14:52:50.087Z,18.77
2022-12-17T14:55:34.589Z,16.80
2022-12-17T14:58:17.562Z,17.93
2022-12-17T15:00:49.308Z,16.87
2022-12-17T15:03:28.059Z,17.70
2022-12-17T15:06:04.664Z,17.13
2022-12-17T15:08:51.631Z,16.63
2022-12-17T15:11:21.075Z,16.60
2022-12-17T15:13:51.621Z,16.70
2022-12-17T15:16:22.626Z,16.97
2022-12-17T15:18:49.735Z,18.00
2022-12-17T15:21:18.370Z,18.17
2022-12-17T15:23:45.660Z,17.63
2022-12-17T15:26:12.281Z,16.47
2022-12-17T15:28:39.104Z,17.77
2022-12-17T15:31:05.833Z,16.47
2022-12-17T15:33:32.371Z,17.37
2022-12-17T15:35:59.445Z,16.47
2022-12-17T15:38:25.992Z,17.07
2022-12-17T15:40:52.592Z,17.67
2022-12-17T15:43:19.364Z,17.47
2022-12-17T15:45:51.108Z,18.23
2022-12-17T15:48:20.430Z,17.80
2022-12-17T15:50:48.058Z,16.57
2022-12-17T15:53:14.655Z,17.43
2022-12-17T15:55:41.550Z,18.00
2022-12-17T15:58:11.463Z,18.03
2022-12-17T16:00:38.993Z,16.43
2022-12-17T16:03:05.786Z,16.70
2022-12-17T16:05:32.331Z,16.53
2022-12-17T16:08:02.211Z,17.00
2022-12-17T16:10:29.120Z,19.40
2022-12-17T16:12:55.593Z,17.47
2022-12-17T16:15:22.205Z,17.60
2022-12-17T16:17:48.749Z,18.00
2022-12-17T16:20:15.322Z,17.83
2022-12-17T16:22:41.887Z,17.20
2022-12-17T16:25:08.846Z,18.33
2022-12-17T16:27:35.405Z,18.77
2022-12-17T16:30:03.404Z,18.83
2022-12-17T16:32:35.965Z,19.70
2022-12-17T16:35:04.800Z,18.90
2022-12-17T16:37:31.936Z,18.23
2022-12-17T16:40:00.379Z,19.60
2022-12-17T16:42:27.161Z,21.20
2022-12-17T16:44:53.616Z,19.97
2022-12-17T16:47:20.109Z,21.00
2022-12-17T16:49:46.583Z,21.33
2022-12-17T16:52:13.111Z,19.73
2022-12-17T16:54:39.557Z,20.93
2022-12-17T16:57:06.018Z,19.20
2022-12-17T16:59:32.476Z,20.30
2022-12-17T17:02:00.320Z,19.63
2022-12-17T17:04:27.013Z,20.20
2022-12-17T17:06:56.315Z,17.23
2022-12-17T17:09:25.233Z,18.63
2022-12-17T17:11:56.451Z,19.20
2022-12-17T17:14:24.076Z,18.87
2022-12-17T17:16:51.136Z,18.40
2022-12-17T17:19:18.548Z,19.63
2022-12-17T17:21:54.003Z,20.07
2022-12-17T17:24:24.153Z,21.73
2022-12-17T17:26:52.215Z,22.80
2022-12-17T17:29:19.345Z,21.33
2022-12-17T17:32:09.172Z,22.80
2022-12-17T17:34:32.366Z,19.50
2022-12-17T17:36:58.829Z,20.70
2022-12-17T17:39:25.798Z,19.90
2022-12-17T17:41:52.299Z,20.63
2022-12-17T17:44:19.176Z,20.53
2022-12-17T17:46:45.816Z,19.50
2022-12-17T17:49:12.695Z,19.30
2022-12-17T17:54:28.298Z,20.10
2022-12-17T17:56:54.775Z,18.40
2022-12-17T17:59:24.219Z,18.77
2022-12-17T18:01:56.050Z,18.40
2022-12-17T18:04:24.295Z,17.40
2022-12-17T18:09:37.651Z,18.90
2022-12-17T18:12:24.281Z,17.30
2022-12-17T18:15:13.605Z,18.60
2022-12-17T18:17:37.403Z,17.07
2022-12-17T18:20:04.296Z,19.00
2022-12-17T18:22:30.748Z,17.60
2022-12-17T18:24:57.216Z,17.77
2022-12-17T18:27:23.722Z,17.90
2022-12-17T18:29:50.249Z,17.63
2022-12-17T18:32:16.738Z,18.07
2022-12-17T18:34:43.301Z,17.23
2022-12-17T18:37:09.813Z,16.20
2022-12-17T18:39:36.375Z,17.10
2022-12-17T18:42:21.473Z,16.60
2022-12-17T18:44:47.949Z,16.67
2022-12-17T18:47:14.551Z,16.30
2022-12-17T18:49:41.047Z,16.40
2022-12-17T18:52:11.738Z,16.70
2022-12-17T18:54:41.723Z,17.33
2022-12-17T18:57:08.189Z,15.97
2022-12-17T18:59:34.747Z,15.77
2022-12-17T19:02:01.764Z,16.97
2022-12-17T19:04:28.781Z,16.30
2022-12-17T19:06:55.293Z,17.00
2022-12-17T19:09:36.286Z,16.07
2022-12-17T19:12:05.991Z,15.47
2022-12-17T19:14:33.006Z,16.57
2022-12-17T19:16:59.719Z,16.13
2022-12-17T19:19:26.617Z,16.83
2022-12-17T19:21:59.697Z,16.53
2022-12-17T19:24:26.841Z,16.97
2022-12-17T19:26:53.318Z,16.37
2022-12-17T19:29:20.672Z,16.93
2022-12-17T19:31:47.935Z,15.63
2022-12-17T19:34:17.207Z,16.03
2022-12-17T19:36:44.847Z,15.30
2022-12-17T19:39:13.772Z,15.80
2022-12-17T19:41:40.830Z,15.10
2022-12-17T19:44:12.168Z,15.30
2022-12-17T19:46:38.806Z,15.47
2022-12-17T19:49:05.443Z,16.37
2022-12-17T19:51:32.901Z,15.80
2022-12-17T19:54:06.405Z,15.20
2022-12-17T19:56:35.458Z,16.03
2022-12-17T19:59:07.382Z,15.87
2022-12-17T20:01:44.070Z,15.83
2022-12-17T20:04:16.025Z,16.67
2022-12-17T20:06:43.326Z,17.13
2022-12-17T20:09:10.550Z,17.43
2022-12-17T20:11:37.245Z,18.27
2022-12-17T20:14:08.427Z,18.40
2022-12-17T20:16:43.234Z,17.80
2022-12-17T20:19:15.273Z,18.37
2022-12-17T20:21:41.935Z,19.63
2022-12-17T20:24:08.759Z,19.30
2022-12-17T20:26:36.928Z,18.67
2022-12-17T20:29:05.003Z,20.20
2022-12-17T20:31:32.730Z,19.93
2022-12-17T20:34:04.719Z,21.90
2022-12-17T20:36:31.788Z,22.40
2022-12-17T20:38:58.871Z,21.70
2022-12-17T20:41:29.004Z,20.50
2022-12-17T20:43:56.086Z,19.57
2022-12-17T20:46:24.845Z,17.43
2022-12-17T20:48:52.157Z,18.20
2022-12-17T20:51:24.220Z,18.43
2022-12-17T20:53:52.482Z,16.30
2022-12-17T20:56:23.228Z,16.93
2022-12-17T20:58:53.956Z,18.30
2022-12-17T21:01:22.702Z,17.37
2022-12-17T21:03:51.905Z,15.47
2022-12-17T21:06:26.194Z,15.13
2022-12-17T21:08:54.003Z,16.70
2022-12-17T21:11:23.600Z,16.47
2022-12-17T21:13:50.117Z,15.47
2022-12-17T21:16:22.731Z,15.77
2022-12-17T21:18:51.957Z,15.63
2022-12-17T21:21:21.625Z,14.93
2022-12-17T21:23:49.070Z,14.57
2022-12-17T21:26:26.795Z,14.83
2022-12-17T21:28:55.515Z,15.07
2022-12-17T21:31:37.682Z,13.83
2022-12-17T21:34:06.006Z,14.50
2022-12-17T21:36:34.627Z,14.57
2022-12-17T21:39:08.962Z,15.90
2022-12-17T21:41:38.520Z,15.87
2022-12-17T21:44:08.612Z,14.70
2022-12-17T21:46:35.508Z,14.40
2022-12-17T21:49:04.316Z,14.20
2022-12-17T21:51:32.289Z,14.33
2022-12-17T21:54:02.795Z,14.23
2022-12-17T21:56:35.755Z,14.57
2022-12-17T21:59:02.232Z,13.60
2022-12-17T22:01:32.312Z,13.97
2022-12-17T22:04:00.756Z,13.40
2022-12-17T22:06:33.911Z,14.33
2022-12-17T22:09:23.338Z,12.40
2022-12-17T22:12:14.630Z,12.63
2022-12-17T22:14:41.306Z,11.43
2022-12-17T22:17:07.754Z,11.07
2022-12-17T22:19:34.319Z,11.50
2022-12-17T22:22:00.769Z,11.07
2022-12-17T22:24:27.229Z,10.97
2022-12-17T22:27:00.241Z,10.27
2022-12-17T22:29:46.818Z,9.87
2022-12-17T22:32:32.728Z,9.87
2022-12-17T22:35:29.863Z,10.80
2022-12-17T22:41:06.765Z,8.70
2022-12-17T22:44:32.292Z,8.93
2022-12-17T22:44:43.984Z,8.57
2022-12-17T22:46:16.929Z,8.80
2022-12-17T22:48:43.526Z,8.77
2022-12-17T22:51:12.731Z,8.97
2022-12-17T22:53:41.726Z,8.17
2022-12-17T22:56:18.481Z,8.30
2022-12-17T22:58:56.339Z,8.93
2022-12-17T23:01:23.460Z,8.00
2022-12-17T23:03:53.834Z,9.00
2022-12-17T23:06:21.049Z,8.97
2022-12-17T23:08:47.547Z,9.13
2022-12-17T23:11:21.075Z,8.37
2022-12-17T23:13:47.790Z,9.10
2022-12-17T23:16:15.118Z,8.47
2022-12-17T23:18:43.151Z,8.77
2022-12-17T23:21:22.239Z,8.50
2022-12-17T23:23:48.804Z,8.97
2022-12-17T23:26:26.655Z,9.47
2022-12-17T23:28:57.189Z,9.33
2022-12-17T23:31:25.240Z,8.67
2022-12-17T23:33:51.786Z,8.87
2022-12-17T23:36:23.820Z,8.73
2022-12-17T23:38:51.097Z,9.10
2022-12-17T23:41:25.854Z,9.17
2022-12-17T23:43:53.347Z,9.10
2022-12-17T23:46:20.986Z,9.30
2022-12-17T23:48:48.212Z,8.67
2022-12-17T23:51:16.623Z,9.07
2022-12-17T23:53:43.698Z,8.67
2022-12-17T23:56:11.474Z,9.87
2022-12-17T23:58:41.624Z,9.50
